sensor_id;sensor_type;location;lat;lon;timestamp;P1;durP1;ratioP1;P2;durP2;ratioP2
30539;SDS011;17321;46.312;4.776;2023-04-25T00:01:17;11.93;;;3.58;;
30539;SDS011;17321;46.312;4.776;2023-04-25T00:03:44;10.80;;;3.75;;
30539;SDS011;17321;46.312;4.776;2023-04-25T00:06:11;9.25;;;3.53;;
30539;SDS011;17321;46.312;4.776;2023-04-25T00:08:37;8.38;;;2.80;;
30539;SDS011;17321;46.312;4.776;2023-04-25T00:11:03;8.68;;;3.20;;
30539;SDS011;17321;46.312;4.776;2023-04-25T00:13:30;3.97;;;2.22;;
30539;SDS011;17321;46.312;4.776;2023-04-25T00:15:56;6.85;;;2.42;;
30539;SDS011;17321;46.312;4.776;2023-04-25T00:18:23;9.50;;;3.10;;
30539;SDS011;17321;46.312;4.776;2023-04-25T00:20:49;5.97;;;2.60;;
30539;SDS011;17321;46.312;4.776;2023-04-25T00:23:18;6.82;;;2.58;;
30539;SDS011;17321;46.312;4.776;2023-04-25T00:25:44;5.78;;;2.60;;
30539;SDS011;17321;46.312;4.776;2023-04-25T00:28:11;7.38;;;2.55;;
30539;SDS011;17321;46.312;4.776;2023-04-25T00:30:37;7.25;;;2.50;;
30539;SDS011;17321;46.312;4.776;2023-04-25T00:33:03;5.50;;;2.42;;
30539;SDS011;17321;46.312;4.776;2023-04-25T00:35:30;8.32;;;2.42;;
30539;SDS011;17321;46.312;4.776;2023-04-25T00:37:56;5.40;;;2.50;;
30539;SDS011;17321;46.312;4.776;2023-04-25T00:40:22;13.52;;;3.33;;
30539;SDS011;17321;46.312;4.776;2023-04-25T00:42:49;5.63;;;2.50;;
30539;SDS011;17321;46.312;4.776;2023-04-25T00:45:15;5.38;;;2.13;;
30539;SDS011;17321;46.312;4.776;2023-04-25T00:47:41;5.45;;;2.17;;
30539;SDS011;17321;46.312;4.776;2023-04-25T00:50:08;5.20;;;2.33;;
30539;SDS011;17321;46.312;4.776;2023-04-25T00:52:34;7.60;;;2.45;;
30539;SDS011;17321;46.312;4.776;2023-04-25T00:55:00;5.57;;;2.70;;
30539;SDS011;17321;46.312;4.776;2023-04-25T00:57:27;5.53;;;2.38;;
30539;SDS011;17321;46.312;4.776;2023-04-25T00:59:53;5.40;;;2.50;;
30539;SDS011;17321;46.312;4.776;2023-04-25T01:02:20;6.93;;;2.33;;
30539;SDS011;17321;46.312;4.776;2023-04-25T01:04:47;7.35;;;2.53;;
30539;SDS011;17321;46.312;4.776;2023-04-25T01:07:13;9.93;;;2.78;;
30539;SDS011;17321;46.312;4.776;2023-04-25T01:09:40;7.13;;;2.20;;
30539;SDS011;17321;46.312;4.776;2023-04-25T01:12:06;7.47;;;3.00;;
30539;SDS011;17321;46.312;4.776;2023-04-25T01:14:33;4.78;;;1.95;;
30539;SDS011;17321;46.312;4.776;2023-04-25T01:16:59;11.02;;;2.20;;
30539;SDS011;17321;46.312;4.776;2023-04-25T01:19:25;5.85;;;2.80;;
30539;SDS011;17321;46.312;4.776;2023-04-25T01:21:51;9.90;;;3.08;;
30539;SDS011;17321;46.312;4.776;2023-04-25T01:24:17;11.50;;;2.72;;
30539;SDS011;17321;46.312;4.776;2023-04-25T01:26:44;6.47;;;3.13;;
30539;SDS011;17321;46.312;4.776;2023-04-25T01:29:15;9.23;;;2.33;;
30539;SDS011;17321;46.312;4.776;2023-04-25T01:31:41;7.85;;;2.90;;
30539;SDS011;17321;46.312;4.776;2023-04-25T01:34:07;14.55;;;3.33;;
30539;SDS011;17321;46.312;4.776;2023-04-25T01:36:34;14.48;;;3.17;;
30539;SDS011;17321;46.312;4.776;2023-04-25T01:39:00;9.57;;;2.78;;
30539;SDS011;17321;46.312;4.776;2023-04-25T01:41:26;8.95;;;3.50;;
30539;SDS011;17321;46.312;4.776;2023-04-25T01:43:53;10.85;;;3.17;;
30539;SDS011;17321;46.312;4.776;2023-04-25T01:46:19;13.02;;;3.03;;
30539;SDS011;17321;46.312;4.776;2023-04-25T01:48:45;16.98;;;3.42;;
30539;SDS011;17321;46.312;4.776;2023-04-25T01:51:11;11.70;;;3.30;;
30539;SDS011;17321;46.312;4.776;2023-04-25T01:53:38;11.18;;;3.60;;
30539;SDS011;17321;46.312;4.776;2023-04-25T01:56:04;16.33;;;4.18;;
30539;SDS011;17321;46.312;4.776;2023-04-25T01:58:31;10.77;;;3.33;;
30539;SDS011;17321;46.312;4.776;2023-04-25T02:00:57;14.45;;;3.30;;
30539;SDS011;17321;46.312;4.776;2023-04-25T02:03:23;13.20;;;4.03;;
30539;SDS011;17321;46.312;4.776;2023-04-25T02:05:49;8.68;;;3.92;;
30539;SDS011;17321;46.312;4.776;2023-04-25T02:08:15;9.68;;;3.50;;
30539;SDS011;17321;46.312;4.776;2023-04-25T02:10:42;11.43;;;4.00;;
30539;SDS011;17321;46.312;4.776;2023-04-25T02:13:08;14.15;;;4.18;;
30539;SDS011;17321;46.312;4.776;2023-04-25T02:15:34;11.68;;;4.07;;
30539;SDS011;17321;46.312;4.776;2023-04-25T02:18:00;9.82;;;3.70;;
30539;SDS011;17321;46.312;4.776;2023-04-25T02:20:27;15.07;;;3.45;;
30539;SDS011;17321;46.312;4.776;2023-04-25T02:22:53;10.77;;;4.25;;
30539;SDS011;17321;46.312;4.776;2023-04-25T02:25:20;12.85;;;4.38;;
30539;SDS011;17321;46.312;4.776;2023-04-25T02:27:46;12.18;;;3.88;;
30539;SDS011;17321;46.312;4.776;2023-04-25T02:30:13;9.77;;;4.05;;
30539;SDS011;17321;46.312;4.776;2023-04-25T02:32:39;17.35;;;4.18;;
30539;SDS011;17321;46.312;4.776;2023-04-25T02:35:06;11.93;;;4.22;;
30539;SDS011;17321;46.312;4.776;2023-04-25T02:37:33;13.52;;;4.50;;
30539;SDS011;17321;46.312;4.776;2023-04-25T02:39:59;17.23;;;4.80;;
30539;SDS011;17321;46.312;4.776;2023-04-25T02:42:26;11.70;;;4.70;;
30539;SDS011;17321;46.312;4.776;2023-04-25T02:44:52;16.00;;;5.15;;
30539;SDS011;17321;46.312;4.776;2023-04-25T02:47:18;12.60;;;5.07;;
30539;SDS011;17321;46.312;4.776;2023-04-25T02:49:45;22.35;;;5.18;;
30539;SDS011;17321;46.312;4.776;2023-04-25T02:52:11;11.90;;;5.03;;
30539;SDS011;17321;46.312;4.776;2023-04-25T02:54:38;8.57;;;4.22;;
30539;SDS011;17321;46.312;4.776;2023-04-25T02:57:04;12.63;;;4.82;;
30539;SDS011;17321;46.312;4.776;2023-04-25T02:59:31;9.88;;;4.57;;
30539;SDS011;17321;46.312;4.776;2023-04-25T03:01:57;19.00;;;5.25;;
30539;SDS011;17321;46.312;4.776;2023-04-25T03:04:23;15.88;;;4.78;;
30539;SDS011;17321;46.312;4.776;2023-04-25T03:06:49;14.20;;;5.30;;
30539;SDS011;17321;46.312;4.776;2023-04-25T03:09:16;16.65;;;5.60;;
30539;SDS011;17321;46.312;4.776;2023-04-25T03:11:43;10.93;;;4.57;;
30539;SDS011;17321;46.312;4.776;2023-04-25T03:14:10;15.95;;;5.45;;
30539;SDS011;17321;46.312;4.776;2023-04-25T03:16:36;13.15;;;5.05;;
30539;SDS011;17321;46.312;4.776;2023-04-25T03:19:02;13.80;;;4.95;;
30539;SDS011;17321;46.312;4.776;2023-04-25T03:21:29;14.23;;;5.53;;
30539;SDS011;17321;46.312;4.776;2023-04-25T03:23:56;12.23;;;5.00;;
30539;SDS011;17321;46.312;4.776;2023-04-25T03:26:23;13.50;;;5.47;;
30539;SDS011;17321;46.312;4.776;2023-04-25T03:28:49;13.68;;;5.32;;
30539;SDS011;17321;46.312;4.776;2023-04-25T03:31:15;15.00;;;6.10;;
30539;SDS011;17321;46.312;4.776;2023-04-25T03:33:41;23.02;;;6.03;;
30539;SDS011;17321;46.312;4.776;2023-04-25T03:36:07;15.23;;;5.22;;
30539;SDS011;17321;46.312;4.776;2023-04-25T03:38:34;13.05;;;5.95;;
30539;SDS011;17321;46.312;4.776;2023-04-25T03:41:01;14.45;;;6.10;;
30539;SDS011;17321;46.312;4.776;2023-04-25T03:43:27;16.85;;;5.95;;
30539;SDS011;17321;46.312;4.776;2023-04-25T03:45:53;23.40;;;6.00;;
30539;SDS011;17321;46.312;4.776;2023-04-25T03:48:19;23.17;;;5.88;;
30539;SDS011;17321;46.312;4.776;2023-04-25T03:50:52;12.15;;;5.22;;
30539;SDS011;17321;46.312;4.776;2023-04-25T03:53:18;14.10;;;4.45;;
30539;SDS011;17321;46.312;4.776;2023-04-25T03:55:44;11.90;;;4.70;;
30539;SDS011;17321;46.312;4.776;2023-04-25T03:58:11;11.63;;;5.68;;
30539;SDS011;17321;46.312;4.776;2023-04-25T04:00:37;8.77;;;4.78;;
30539;SDS011;17321;46.312;4.776;2023-04-25T04:03:03;12.63;;;4.93;;
30539;SDS011;17321;46.312;4.776;2023-04-25T04:05:29;15.52;;;4.97;;
30539;SDS011;17321;46.312;4.776;2023-04-25T04:07:56;13.65;;;4.70;;
30539;SDS011;17321;46.312;4.776;2023-04-25T04:10:22;15.55;;;5.78;;
30539;SDS011;17321;46.312;4.776;2023-04-25T04:12:48;12.77;;;4.75;;
30539;SDS011;17321;46.312;4.776;2023-04-25T04:15:14;11.55;;;4.93;;
30539;SDS011;17321;46.312;4.776;2023-04-25T04:17:40;9.80;;;4.30;;
30539;SDS011;17321;46.312;4.776;2023-04-25T04:20:06;13.15;;;4.93;;
30539;SDS011;17321;46.312;4.776;2023-04-25T04:22:33;16.02;;;5.30;;
30539;SDS011;17321;46.312;4.776;2023-04-25T04:25:00;8.95;;;4.50;;
30539;SDS011;17321;46.312;4.776;2023-04-25T04:27:26;13.77;;;5.05;;
30539;SDS011;17321;46.312;4.776;2023-04-25T04:29:53;16.33;;;4.88;;
30539;SDS011;17321;46.312;4.776;2023-04-25T04:32:19;11.57;;;4.75;;
30539;SDS011;17321;46.312;4.776;2023-04-25T04:34:45;13.80;;;4.65;;
30539;SDS011;17321;46.312;4.776;2023-04-25T04:37:12;15.73;;;5.28;;
30539;SDS011;17321;46.312;4.776;2023-04-25T04:39:38;16.92;;;4.93;;
30539;SDS011;17321;46.312;4.776;2023-04-25T04:42:05;12.52;;;4.22;;
30539;SDS011;17321;46.312;4.776;2023-04-25T04:44:31;16.88;;;4.85;;
30539;SDS011;17321;46.312;4.776;2023-04-25T04:49:26;9.85;;;4.22;;
30539;SDS011;17321;46.312;4.776;2023-04-25T04:51:53;13.30;;;4.53;;
30539;SDS011;17321;46.312;4.776;2023-04-25T04:54:19;11.18;;;4.65;;
30539;SDS011;17321;46.312;4.776;2023-04-25T04:56:45;17.05;;;6.13;;
30539;SDS011;17321;46.312;4.776;2023-04-25T04:59:12;14.43;;;4.70;;
30539;SDS011;17321;46.312;4.776;2023-04-25T05:01:38;22.77;;;5.60;;
30539;SDS011;17321;46.312;4.776;2023-04-25T05:04:04;10.45;;;4.95;;
30539;SDS011;17321;46.312;4.776;2023-04-25T05:06:31;12.90;;;4.53;;
30539;SDS011;17321;46.312;4.776;2023-04-25T05:08:57;10.10;;;4.53;;
30539;SDS011;17321;46.312;4.776;2023-04-25T05:11:24;11.50;;;4.75;;
30539;SDS011;17321;46.312;4.776;2023-04-25T05:13:53;11.82;;;4.70;;
30539;SDS011;17321;46.312;4.776;2023-04-25T05:16:19;11.10;;;4.30;;
30539;SDS011;17321;46.312;4.776;2023-04-25T05:18:46;14.77;;;5.25;;
30539;SDS011;17321;46.312;4.776;2023-04-25T05:21:12;12.82;;;5.30;;
30539;SDS011;17321;46.312;4.776;2023-04-25T05:23:38;14.75;;;4.70;;
30539;SDS011;17321;46.312;4.776;2023-04-25T05:26:04;10.00;;;4.40;;
30539;SDS011;17321;46.312;4.776;2023-04-25T05:28:30;15.73;;;5.70;;
30539;SDS011;17321;46.312;4.776;2023-04-25T05:30:56;16.65;;;4.50;;
30539;SDS011;17321;46.312;4.776;2023-04-25T05:33:23;13.23;;;3.60;;
30539;SDS011;17321;46.312;4.776;2023-04-25T05:35:49;12.20;;;4.18;;
30539;SDS011;17321;46.312;4.776;2023-04-25T05:38:15;14.20;;;4.03;;
30539;SDS011;17321;46.312;4.776;2023-04-25T05:40:41;12.95;;;4.18;;
30539;SDS011;17321;46.312;4.776;2023-04-25T05:43:07;15.23;;;5.85;;
30539;SDS011;17321;46.312;4.776;2023-04-25T05:45:34;7.40;;;3.63;;
30539;SDS011;17321;46.312;4.776;2023-04-25T05:48:00;16.20;;;4.72;;
30539;SDS011;17321;46.312;4.776;2023-04-25T05:50:26;9.52;;;4.30;;
30539;SDS011;17321;46.312;4.776;2023-04-25T05:52:52;12.15;;;4.25;;
30539;SDS011;17321;46.312;4.776;2023-04-25T05:55:18;13.82;;;4.38;;
30539;SDS011;17321;46.312;4.776;2023-04-25T05:57:44;12.40;;;4.00;;
30539;SDS011;17321;46.312;4.776;2023-04-25T06:00:13;16.52;;;4.20;;
30539;SDS011;17321;46.312;4.776;2023-04-25T06:02:43;11.68;;;3.72;;
30539;SDS011;17321;46.312;4.776;2023-04-25T06:05:10;14.00;;;3.25;;
30539;SDS011;17321;46.312;4.776;2023-04-25T06:07:36;13.27;;;4.20;;
30539;SDS011;17321;46.312;4.776;2023-04-25T06:10:02;20.88;;;5.13;;
30539;SDS011;17321;46.312;4.776;2023-04-25T06:12:31;17.17;;;4.53;;
30539;SDS011;17321;46.312;4.776;2023-04-25T06:14:58;15.27;;;4.03;;
30539;SDS011;17321;46.312;4.776;2023-04-25T06:17:24;12.68;;;3.83;;
30539;SDS011;17321;46.312;4.776;2023-04-25T06:19:50;9.85;;;3.47;;
30539;SDS011;17321;46.312;4.776;2023-04-25T06:22:16;14.52;;;3.35;;
30539;SDS011;17321;46.312;4.776;2023-04-25T06:24:42;19.23;;;3.60;;
30539;SDS011;17321;46.312;4.776;2023-04-25T06:27:08;10.52;;;3.85;;
30539;SDS011;17321;46.312;4.776;2023-04-25T06:29:35;10.85;;;3.88;;
30539;SDS011;17321;46.312;4.776;2023-04-25T06:32:01;10.40;;;3.38;;
30539;SDS011;17321;46.312;4.776;2023-04-25T06:34:27;7.53;;;3.60;;
30539;SDS011;17321;46.312;4.776;2023-04-25T06:36:53;9.30;;;2.80;;
30539;SDS011;17321;46.312;4.776;2023-04-25T06:39:19;10.27;;;3.72;;
30539;SDS011;17321;46.312;4.776;2023-04-25T06:41:47;10.23;;;3.13;;
30539;SDS011;17321;46.312;4.776;2023-04-25T06:44:13;13.63;;;3.55;;
30539;SDS011;17321;46.312;4.776;2023-04-25T06:46:40;8.82;;;3.30;;
30539;SDS011;17321;46.312;4.776;2023-04-25T06:49:06;10.35;;;3.55;;
30539;SDS011;17321;46.312;4.776;2023-04-25T06:51:32;10.68;;;3.08;;
30539;SDS011;17321;46.312;4.776;2023-04-25T06:53:58;11.93;;;2.88;;
30539;SDS011;17321;46.312;4.776;2023-04-25T06:56:25;14.82;;;3.17;;
30539;SDS011;17321;46.312;4.776;2023-04-25T06:58:51;12.00;;;3.40;;
30539;SDS011;17321;46.312;4.776;2023-04-25T07:01:17;8.57;;;2.72;;
30539;SDS011;17321;46.312;4.776;2023-04-25T07:03:43;13.82;;;3.13;;
30539;SDS011;17321;46.312;4.776;2023-04-25T07:06:09;12.75;;;3.45;;
30539;SDS011;17321;46.312;4.776;2023-04-25T07:08:35;13.80;;;3.65;;
30539;SDS011;17321;46.312;4.776;2023-04-25T07:11:02;8.73;;;2.60;;
30539;SDS011;17321;46.312;4.776;2023-04-25T07:13:28;14.05;;;3.42;;
30539;SDS011;17321;46.312;4.776;2023-04-25T07:15:54;5.80;;;2.75;;
30539;SDS011;17321;46.312;4.776;2023-04-25T07:18:21;9.70;;;2.72;;
30539;SDS011;17321;46.312;4.776;2023-04-25T07:20:47;9.25;;;2.60;;
30539;SDS011;17321;46.312;4.776;2023-04-25T07:23:14;11.13;;;3.22;;
30539;SDS011;17321;46.312;4.776;2023-04-25T07:25:40;9.75;;;3.00;;
30539;SDS011;17321;46.312;4.776;2023-04-25T07:28:06;12.77;;;2.67;;
30539;SDS011;17321;46.312;4.776;2023-04-25T07:30:32;7.10;;;2.85;;
30539;SDS011;17321;46.312;4.776;2023-04-25T07:32:59;8.98;;;2.65;;
30539;SDS011;17321;46.312;4.776;2023-04-25T07:35:26;9.25;;;2.75;;
30539;SDS011;17321;46.312;4.776;2023-04-25T07:37:52;11.48;;;3.08;;
30539;SDS011;17321;46.312;4.776;2023-04-25T07:40:18;13.70;;;3.13;;
30539;SDS011;17321;46.312;4.776;2023-04-25T07:42:44;9.48;;;3.30;;
30539;SDS011;17321;46.312;4.776;2023-04-25T07:45:10;10.40;;;2.90;;
30539;SDS011;17321;46.312;4.776;2023-04-25T07:47:36;7.53;;;2.53;;
30539;SDS011;17321;46.312;4.776;2023-04-25T07:50:03;10.27;;;2.75;;
30539;SDS011;17321;46.312;4.776;2023-04-25T07:52:30;14.98;;;3.60;;
30539;SDS011;17321;46.312;4.776;2023-04-25T07:54:56;10.75;;;3.28;;
30539;SDS011;17321;46.312;4.776;2023-04-25T07:57:23;10.27;;;2.47;;
30539;SDS011;17321;46.312;4.776;2023-04-25T07:59:50;13.35;;;3.55;;
30539;SDS011;17321;46.312;4.776;2023-04-25T08:02:16;11.02;;;3.00;;
30539;SDS011;17321;46.312;4.776;2023-04-25T08:04:42;10.00;;;3.08;;
30539;SDS011;17321;46.312;4.776;2023-04-25T08:07:08;11.57;;;2.97;;
30539;SDS011;17321;46.312;4.776;2023-04-25T08:09:34;8.18;;;3.13;;
30539;SDS011;17321;46.312;4.776;2023-04-25T08:12:02;17.20;;;3.30;;
30539;SDS011;17321;46.312;4.776;2023-04-25T08:14:28;8.20;;;3.00;;
30539;SDS011;17321;46.312;4.776;2023-04-25T08:17:00;11.38;;;3.47;;
30539;SDS011;17321;46.312;4.776;2023-04-25T08:19:26;9.30;;;3.17;;
30539;SDS011;17321;46.312;4.776;2023-04-25T08:21:52;9.77;;;2.78;;
30539;SDS011;17321;46.312;4.776;2023-04-25T08:24:20;12.10;;;3.47;;
30539;SDS011;17321;46.312;4.776;2023-04-25T08:26:46;6.57;;;3.10;;
30539;SDS011;17321;46.312;4.776;2023-04-25T08:29:12;9.05;;;3.38;;
30539;SDS011;17321;46.312;4.776;2023-04-25T08:31:38;6.53;;;3.00;;
30539;SDS011;17321;46.312;4.776;2023-04-25T08:34:05;8.63;;;3.35;;
30539;SDS011;17321;46.312;4.776;2023-04-25T08:36:31;12.27;;;3.58;;
30539;SDS011;17321;46.312;4.776;2023-04-25T08:38:58;8.52;;;3.20;;
30539;SDS011;17321;46.312;4.776;2023-04-25T08:41:24;9.18;;;3.17;;
30539;SDS011;17321;46.312;4.776;2023-04-25T08:43:51;9.75;;;3.08;;
30539;SDS011;17321;46.312;4.776;2023-04-25T08:46:18;7.68;;;3.60;;
30539;SDS011;17321;46.312;4.776;2023-04-25T08:48:44;12.55;;;3.60;;
30539;SDS011;17321;46.312;4.776;2023-04-25T08:51:14;5.03;;;3.30;;
30539;SDS011;17321;46.312;4.776;2023-04-25T08:53:41;5.32;;;3.00;;
30539;SDS011;17321;46.312;4.776;2023-04-25T08:56:08;9.25;;;3.38;;
30539;SDS011;17321;46.312;4.776;2023-04-25T08:58:34;15.00;;;3.58;;
30539;SDS011;17321;46.312;4.776;2023-04-25T09:01:01;9.95;;;3.33;;
30539;SDS011;17321;46.312;4.776;2023-04-25T09:03:27;7.55;;;3.33;;
30539;SDS011;17321;46.312;4.776;2023-04-25T09:05:53;15.93;;;3.33;;
30539;SDS011;17321;46.312;4.776;2023-04-25T09:08:21;6.50;;;2.88;;
30539;SDS011;17321;46.312;4.776;2023-04-25T09:10:47;7.53;;;2.72;;
30539;SDS011;17321;46.312;4.776;2023-04-25T09:13:14;7.13;;;2.30;;
30539;SDS011;17321;46.312;4.776;2023-04-25T09:15:49;9.65;;;2.70;;
30539;SDS011;17321;46.312;4.776;2023-04-25T09:18:26;9.93;;;2.10;;
30539;SDS011;17321;46.312;4.776;2023-04-25T09:21:13;10.20;;;2.63;;
30539;SDS011;17321;46.312;4.776;2023-04-25T09:23:43;8.18;;;2.83;;
30539;SDS011;17321;46.312;4.776;2023-04-25T09:26:10;8.70;;;2.95;;
30539;SDS011;17321;46.312;4.776;2023-04-25T09:28:39;6.32;;;2.30;;
30539;SDS011;17321;46.312;4.776;2023-04-25T09:31:09;3.13;;;1.63;;
30539;SDS011;17321;46.312;4.776;2023-04-25T09:33:35;7.15;;;1.60;;
30539;SDS011;17321;46.312;4.776;2023-04-25T09:36:03;9.95;;;2.55;;
30539;SDS011;17321;46.312;4.776;2023-04-25T09:38:30;4.55;;;1.92;;
30539;SDS011;17321;46.312;4.776;2023-04-25T09:40:57;9.85;;;2.38;;
30539;SDS011;17321;46.312;4.776;2023-04-25T09:43:23;5.45;;;2.10;;
30539;SDS011;17321;46.312;4.776;2023-04-25T09:45:50;10.80;;;2.20;;
30539;SDS011;17321;46.312;4.776;2023-04-25T09:48:21;8.30;;;1.90;;
30539;SDS011;17321;46.312;4.776;2023-04-25T09:53:29;5.80;;;1.98;;
30539;SDS011;17321;46.312;4.776;2023-04-25T09:55:57;4.80;;;2.00;;
30539;SDS011;17321;46.312;4.776;2023-04-25T09:58:25;4.85;;;2.13;;
30539;SDS011;17321;46.312;4.776;2023-04-25T10:00:53;5.05;;;1.70;;
30539;SDS011;17321;46.312;4.776;2023-04-25T10:03:19;3.17;;;1.50;;
30539;SDS011;17321;46.312;4.776;2023-04-25T10:05:46;3.72;;;1.80;;
30539;SDS011;17321;46.312;4.776;2023-04-25T10:08:14;3.30;;;1.60;;
30539;SDS011;17321;46.312;4.776;2023-04-25T10:10:41;7.57;;;1.73;;
30539;SDS011;17321;46.312;4.776;2023-04-25T10:13:08;3.97;;;1.80;;
30539;SDS011;17321;46.312;4.776;2023-04-25T10:15:35;4.40;;;2.22;;
30539;SDS011;17321;46.312;4.776;2023-04-25T10:18:05;5.45;;;1.92;;
30539;SDS011;17321;46.312;4.776;2023-04-25T10:20:32;7.63;;;1.85;;
30539;SDS011;17321;46.312;4.776;2023-04-25T10:23:03;3.92;;;1.50;;
30539;SDS011;17321;46.312;4.776;2023-04-25T10:25:29;6.20;;;1.45;;
30539;SDS011;17321;46.312;4.776;2023-04-25T10:27:56;3.97;;;1.63;;
30539;SDS011;17321;46.312;4.776;2023-04-25T10:30:25;6.22;;;2.08;;
30539;SDS011;17321;46.312;4.776;2023-04-25T10:32:51;5.75;;;1.85;;
30539;SDS011;17321;46.312;4.776;2023-04-25T10:35:38;4.43;;;1.77;;
30539;SDS011;17321;46.312;4.776;2023-04-25T10:38:08;2.83;;;1.50;;
30539;SDS011;17321;46.312;4.776;2023-04-25T10:40:35;5.85;;;1.80;;
30539;SDS011;17321;46.312;4.776;2023-04-25T10:45:52;6.95;;;1.42;;
30539;SDS011;17321;46.312;4.776;2023-04-25T10:48:27;4.90;;;1.40;;
30539;SDS011;17321;46.312;4.776;2023-04-25T10:51:39;4.63;;;1.85;;
30539;SDS011;17321;46.312;4.776;2023-04-25T10:53:40;3.90;;;1.52;;
30539;SDS011;17321;46.312;4.776;2023-04-25T10:58:44;7.70;;;1.90;;
30539;SDS011;17321;46.312;4.776;2023-04-25T11:01:14;5.28;;;1.40;;
30539;SDS011;17321;46.312;4.776;2023-04-25T11:03:41;4.63;;;1.50;;
30539;SDS011;17321;46.312;4.776;2023-04-25T11:06:20;2.63;;;1.23;;
30539;SDS011;17321;46.312;4.776;2023-04-25T11:08:49;3.30;;;1.27;;
30539;SDS011;17321;46.312;4.776;2023-04-25T11:11:16;5.10;;;1.85;;
30539;SDS011;17321;46.312;4.776;2023-04-25T11:13:42;2.67;;;1.38;;
30539;SDS011;17321;46.312;4.776;2023-04-25T11:16:08;4.78;;;1.33;;
30539;SDS011;17321;46.312;4.776;2023-04-25T11:18:34;3.03;;;1.10;;
30539;SDS011;17321;46.312;4.776;2023-04-25T11:21:02;3.97;;;1.55;;
30539;SDS011;17321;46.312;4.776;2023-04-25T11:23:29;3.22;;;1.17;;
30539;SDS011;17321;46.312;4.776;2023-04-25T11:25:56;2.53;;;1.30;;
30539;SDS011;17321;46.312;4.776;2023-04-25T11:28:22;6.07;;;1.80;;
30539;SDS011;17321;46.312;4.776;2023-04-25T11:30:49;5.78;;;1.63;;
30539;SDS011;17321;46.312;4.776;2023-04-25T11:33:15;5.47;;;1.67;;
30539;SDS011;17321;46.312;4.776;2023-04-25T11:35:42;3.58;;;1.50;;
30539;SDS011;17321;46.312;4.776;2023-04-25T11:38:08;5.43;;;1.38;;
30539;SDS011;17321;46.312;4.776;2023-04-25T11:40:35;2.75;;;1.30;;
30539;SDS011;17321;46.312;4.776;2023-04-25T11:43:01;4.25;;;1.55;;
30539;SDS011;17321;46.312;4.776;2023-04-25T11:45:28;3.38;;;1.10;;
30539;SDS011;17321;46.312;4.776;2023-04-25T11:47:56;1.95;;;0.80;;
30539;SDS011;17321;46.312;4.776;2023-04-25T11:50:22;4.35;;;1.38;;
30539;SDS011;17321;46.312;4.776;2023-04-25T11:52:48;3.28;;;1.23;;
30539;SDS011;17321;46.312;4.776;2023-04-25T11:55:18;3.30;;;1.30;;
30539;SDS011;17321;46.312;4.776;2023-04-25T11:57:47;3.13;;;1.23;;
30539;SDS011;17321;46.312;4.776;2023-04-25T12:00:17;3.45;;;1.50;;
30539;SDS011;17321;46.312;4.776;2023-04-25T12:02:45;6.00;;;1.55;;
30539;SDS011;17321;46.312;4.776;2023-04-25T12:05:13;1.77;;;1.00;;
30539;SDS011;17321;46.312;4.776;2023-04-25T12:07:42;2.38;;;1.27;;
30539;SDS011;17321;46.312;4.776;2023-04-25T12:12:36;2.88;;;1.30;;
30539;SDS011;17321;46.312;4.776;2023-04-25T12:15:09;3.58;;;1.02;;
30539;SDS011;17321;46.312;4.776;2023-04-25T12:17:36;3.22;;;1.45;;
30539;SDS011;17321;46.312;4.776;2023-04-25T12:20:09;3.78;;;1.30;;
30539;SDS011;17321;46.312;4.776;2023-04-25T12:22:36;4.30;;;1.92;;
30539;SDS011;17321;46.312;4.776;2023-04-25T12:25:03;3.92;;;1.38;;
30539;SDS011;17321;46.312;4.776;2023-04-25T12:27:30;4.10;;;1.30;;
30539;SDS011;17321;46.312;4.776;2023-04-25T12:29:57;4.05;;;1.50;;
30539;SDS011;17321;46.312;4.776;2023-04-25T12:32:23;7.22;;;1.90;;
30539;SDS011;17321;46.312;4.776;2023-04-25T12:34:51;3.20;;;1.40;;
30539;SDS011;17321;46.312;4.776;2023-04-25T12:37:17;3.53;;;1.65;;
30539;SDS011;17321;46.312;4.776;2023-04-25T12:39:43;2.78;;;1.10;;
30539;SDS011;17321;46.312;4.776;2023-04-25T12:42:09;3.72;;;1.42;;
30539;SDS011;17321;46.312;4.776;2023-04-25T12:44:37;2.60;;;0.90;;
30539;SDS011;17321;46.312;4.776;2023-04-25T12:47:03;2.40;;;1.20;;
30539;SDS011;17321;46.312;4.776;2023-04-25T12:49:30;4.05;;;1.33;;
30539;SDS011;17321;46.312;4.776;2023-04-25T12:51:56;5.10;;;1.60;;
30539;SDS011;17321;46.312;4.776;2023-04-25T12:54:23;4.40;;;1.42;;
30539;SDS011;17321;46.312;4.776;2023-04-25T12:56:50;5.30;;;1.35;;
30539;SDS011;17321;46.312;4.776;2023-04-25T12:59:16;4.00;;;1.50;;
30539;SDS011;17321;46.312;4.776;2023-04-25T13:01:43;4.53;;;1.40;;
30539;SDS011;17321;46.312;4.776;2023-04-25T13:04:10;1.88;;;1.20;;
30539;SDS011;17321;46.312;4.776;2023-04-25T13:06:36;5.50;;;1.25;;
30539;SDS011;17321;46.312;4.776;2023-04-25T13:09:02;4.43;;;1.30;;
30539;SDS011;17321;46.312;4.776;2023-04-25T13:11:29;2.75;;;1.20;;
30539;SDS011;17321;46.312;4.776;2023-04-25T13:13:56;3.20;;;1.05;;
30539;SDS011;17321;46.312;4.776;2023-04-25T13:16:22;5.65;;;1.45;;
30539;SDS011;17321;46.312;4.776;2023-04-25T13:18:48;3.67;;;1.50;;
30539;SDS011;17321;46.312;4.776;2023-04-25T13:21:14;6.07;;;1.38;;
30539;SDS011;17321;46.312;4.776;2023-04-25T13:23:40;2.40;;;1.20;;
30539;SDS011;17321;46.312;4.776;2023-04-25T13:26:08;7.57;;;1.27;;
30539;SDS011;17321;46.312;4.776;2023-04-25T13:28:34;4.25;;;1.30;;
30539;SDS011;17321;46.312;4.776;2023-04-25T13:31:00;3.58;;;1.10;;
30539;SDS011;17321;46.312;4.776;2023-04-25T13:33:26;2.75;;;1.40;;
30539;SDS011;17321;46.312;4.776;2023-04-25T13:35:52;3.83;;;1.60;;
30539;SDS011;17321;46.312;4.776;2023-04-25T13:38:23;5.32;;;1.27;;
30539;SDS011;17321;46.312;4.776;2023-04-25T13:40:50;3.08;;;0.95;;
30539;SDS011;17321;46.312;4.776;2023-04-25T13:43:20;5.15;;;1.20;;
30539;SDS011;17321;46.312;4.776;2023-04-25T13:45:47;3.92;;;0.90;;
30539;SDS011;17321;46.312;4.776;2023-04-25T13:48:13;8.27;;;1.63;;
30539;SDS011;17321;46.312;4.776;2023-04-25T13:50:39;3.00;;;1.17;;
30539;SDS011;17321;46.312;4.776;2023-04-25T13:53:05;4.50;;;1.08;;
30539;SDS011;17321;46.312;4.776;2023-04-25T13:55:33;2.60;;;0.90;;
30539;SDS011;17321;46.312;4.776;2023-04-25T13:58:00;1.70;;;0.95;;
30539;SDS011;17321;46.312;4.776;2023-04-25T14:00:32;3.97;;;1.30;;
30539;SDS011;17321;46.312;4.776;2023-04-25T14:02:58;4.68;;;1.35;;
30539;SDS011;17321;46.312;4.776;2023-04-25T14:05:24;1.75;;;1.00;;
30539;SDS011;17321;46.312;4.776;2023-04-25T14:07:50;4.28;;;1.10;;
30539;SDS011;17321;46.312;4.776;2023-04-25T14:10:16;6.45;;;1.35;;
30539;SDS011;17321;46.312;4.776;2023-04-25T14:12:42;3.75;;;1.23;;
30539;SDS011;17321;46.312;4.776;2023-04-25T14:15:08;4.63;;;1.70;;
30539;SDS011;17321;46.312;4.776;2023-04-25T14:17:35;3.95;;;1.30;;
30539;SDS011;17321;46.312;4.776;2023-04-25T14:20:02;3.22;;;1.30;;
30539;SDS011;17321;46.312;4.776;2023-04-25T14:22:30;3.65;;;1.20;;
30539;SDS011;17321;46.312;4.776;2023-04-25T14:24:56;3.00;;;1.23;;
30539;SDS011;17321;46.312;4.776;2023-04-25T14:27:23;6.25;;;1.50;;
30539;SDS011;17321;46.312;4.776;2023-04-25T14:29:50;4.80;;;1.20;;
30539;SDS011;17321;46.312;4.776;2023-04-25T14:32:16;3.20;;;1.20;;
30539;SDS011;17321;46.312;4.776;2023-04-25T14:34:42;2.28;;;1.00;;
30539;SDS011;17321;46.312;4.776;2023-04-25T14:37:08;6.72;;;1.20;;
30539;SDS011;17321;46.312;4.776;2023-04-25T14:39:34;4.97;;;1.35;;
30539;SDS011;17321;46.312;4.776;2023-04-25T14:42:01;9.00;;;1.40;;
30539;SDS011;17321;46.312;4.776;2023-04-25T14:44:28;5.97;;;1.35;;
30539;SDS011;17321;46.312;4.776;2023-04-25T14:46:54;6.65;;;1.80;;
30539;SDS011;17321;46.312;4.776;2023-04-25T14:49:20;6.78;;;1.52;;
30539;SDS011;17321;46.312;4.776;2023-04-25T14:51:46;3.58;;;1.10;;
30539;SDS011;17321;46.312;4.776;2023-04-25T14:54:12;3.55;;;1.25;;